sensor_id;sensor_type;location;lat;lon;timestamp;P1;durP1;ratioP1;P2;durP2;ratioP2
72949;SDS011;64868;45.710;9.590;2023-07-30T00:01:28;5.88;;;2.85;;
72949;SDS011;64868;45.710;9.590;2023-07-30T00:03:58;6.47;;;3.10;;
72949;SDS011;64868;45.710;9.590;2023-07-30T00:06:28;7.68;;;3.20;;
72949;SDS011;64868;45.710;9.590;2023-07-30T00:08:58;6.05;;;2.88;;
72949;SDS011;64868;45.710;9.590;2023-07-30T00:11:28;6.35;;;3.00;;
72949;SDS011;64868;45.710;9.590;2023-07-30T00:13:58;8.10;;;3.40;;
72949;SDS011;64868;45.710;9.590;2023-07-30T00:16:28;7.50;;;3.22;;
72949;SDS011;64868;45.710;9.590;2023-07-30T00:18:56;6.35;;;2.80;;
72949;SDS011;64868;45.710;9.590;2023-07-30T00:21:26;6.07;;;3.00;;
72949;SDS011;64868;45.710;9.590;2023-07-30T00:23:56;6.38;;;3.10;;
72949;SDS011;64868;45.710;9.590;2023-07-30T00:26:26;8.55;;;3.60;;
72949;SDS011;64868;45.710;9.590;2023-07-30T00:28:56;7.82;;;3.40;;
72949;SDS011;64868;45.710;9.590;2023-07-30T00:31:24;7.45;;;3.38;;
72949;SDS011;64868;45.710;9.590;2023-07-30T00:33:54;6.55;;;3.13;;
72949;SDS011;64868;45.710;9.590;2023-07-30T00:36:24;8.25;;;3.53;;
72949;SDS011;64868;45.710;9.590;2023-07-30T00:38:54;8.10;;;3.80;;
72949;SDS011;64868;45.710;9.590;2023-07-30T00:41:22;8.48;;;3.80;;
72949;SDS011;64868;45.710;9.590;2023-07-30T00:43:50;8.50;;;3.88;;
72949;SDS011;64868;45.710;9.590;2023-07-30T00:46:20;7.28;;;3.78;;
72949;SDS011;64868;45.710;9.590;2023-07-30T00:48:47;7.32;;;3.65;;
72949;SDS011;64868;45.710;9.590;2023-07-30T00:51:17;8.05;;;3.80;;
72949;SDS011;64868;45.710;9.590;2023-07-30T00:53:46;7.75;;;3.40;;
72949;SDS011;64868;45.710;9.590;2023-07-30T00:56:14;8.57;;;3.50;;
72949;SDS011;64868;45.710;9.590;2023-07-30T00:58:44;7.75;;;3.50;;
72949;SDS011;64868;45.710;9.590;2023-07-30T01:01:17;7.03;;;3.17;;
72949;SDS011;64868;45.710;9.590;2023-07-30T01:03:47;7.60;;;3.25;;
72949;SDS011;64868;45.710;9.590;2023-07-30T01:06:18;7.55;;;3.38;;
72949;SDS011;64868;45.710;9.590;2023-07-30T01:08:45;8.57;;;4.07;;
72949;SDS011;64868;45.710;9.590;2023-07-30T01:11:15;7.25;;;3.50;;
72949;SDS011;64868;45.710;9.590;2023-07-30T01:16:12;8.23;;;3.97;;
72949;SDS011;64868;45.710;9.590;2023-07-30T01:18:40;6.70;;;3.50;;
72949;SDS011;64868;45.710;9.590;2023-07-30T01:21:10;8.50;;;3.85;;
72949;SDS011;64868;45.710;9.590;2023-07-30T01:23:37;7.10;;;3.22;;
72949;SDS011;64868;45.710;9.590;2023-07-30T01:26:09;6.60;;;3.10;;
72949;SDS011;64868;45.710;9.590;2023-07-30T01:28:40;10.52;;;3.83;;
72949;SDS011;64868;45.710;9.590;2023-07-30T01:31:11;7.15;;;3.05;;
72949;SDS011;64868;45.710;9.590;2023-07-30T01:33:41;7.07;;;3.40;;
72949;SDS011;64868;45.710;9.590;2023-07-30T01:36:12;10.05;;;3.55;;
72949;SDS011;64868;45.710;9.590;2023-07-30T01:38:44;9.18;;;3.55;;
72949;SDS011;64868;45.710;9.590;2023-07-30T01:41:14;8.30;;;3.63;;
72949;SDS011;64868;45.710;9.590;2023-07-30T01:43:39;6.57;;;3.10;;
72949;SDS011;64868;45.710;9.590;2023-07-30T01:46:09;7.15;;;3.10;;
72949;SDS011;64868;45.710;9.590;2023-07-30T01:48:39;7.68;;;3.10;;
72949;SDS011;64868;45.710;9.590;2023-07-30T01:51:10;8.90;;;3.20;;
72949;SDS011;64868;45.710;9.590;2023-07-30T01:53:40;6.82;;;3.00;;
72949;SDS011;64868;45.710;9.590;2023-07-30T01:56:10;9.80;;;3.40;;
72949;SDS011;64868;45.710;9.590;2023-07-30T01:58:40;8.95;;;3.25;;
72949;SDS011;64868;45.710;9.590;2023-07-30T02:01:10;6.18;;;2.80;;
72949;SDS011;64868;45.710;9.590;2023-07-30T02:03:40;7.07;;;2.97;;
72949;SDS011;64868;45.710;9.590;2023-07-30T02:06:10;6.90;;;2.85;;
72949;SDS011;64868;45.710;9.590;2023-07-30T02:08:40;6.60;;;3.03;;
72949;SDS011;64868;45.710;9.590;2023-07-30T02:11:10;6.63;;;2.97;;
72949;SDS011;64868;45.710;9.590;2023-07-30T02:13:40;5.90;;;2.60;;
72949;SDS011;64868;45.710;9.590;2023-07-30T02:16:10;5.35;;;2.53;;
72949;SDS011;64868;45.710;9.590;2023-07-30T02:18:41;6.03;;;2.70;;
72949;SDS011;64868;45.710;9.590;2023-07-30T02:21:11;6.93;;;2.72;;
72949;SDS011;64868;45.710;9.590;2023-07-30T02:23:41;7.28;;;2.97;;
72949;SDS011;64868;45.710;9.590;2023-07-30T02:26:11;7.40;;;3.42;;
72949;SDS011;64868;45.710;9.590;2023-07-30T02:28:41;6.28;;;2.70;;
72949;SDS011;64868;45.710;9.590;2023-07-30T02:31:11;6.93;;;2.75;;
72949;SDS011;64868;45.710;9.590;2023-07-30T02:33:39;6.75;;;2.90;;
72949;SDS011;64868;45.710;9.590;2023-07-30T02:36:09;7.15;;;2.90;;
72949;SDS011;64868;45.710;9.590;2023-07-30T02:38:36;6.30;;;2.70;;
72949;SDS011;64868;45.710;9.590;2023-07-30T02:41:07;5.93;;;2.72;;
72949;SDS011;64868;45.710;9.590;2023-07-30T02:43:34;6.72;;;2.65;;
72949;SDS011;64868;45.710;9.590;2023-07-30T02:46:04;6.18;;;3.08;;
72949;SDS011;64868;45.710;9.590;2023-07-30T02:48:34;7.18;;;3.03;;
72949;SDS011;64868;45.710;9.590;2023-07-30T02:51:05;6.18;;;2.78;;
72949;SDS011;64868;45.710;9.590;2023-07-30T02:53:32;6.65;;;3.13;;
72949;SDS011;64868;45.710;9.590;2023-07-30T02:56:02;5.97;;;2.97;;
72949;SDS011;64868;45.710;9.590;2023-07-30T02:58:33;5.72;;;2.70;;
72949;SDS011;64868;45.710;9.590;2023-07-30T03:01:09;7.38;;;3.00;;
72949;SDS011;64868;45.710;9.590;2023-07-30T03:03:36;6.82;;;3.08;;
72949;SDS011;64868;45.710;9.590;2023-07-30T03:06:06;6.20;;;3.13;;
72949;SDS011;64868;45.710;9.590;2023-07-30T03:08:34;9.60;;;3.40;;
72949;SDS011;64868;45.710;9.590;2023-07-30T03:11:04;6.47;;;3.05;;
72949;SDS011;64868;45.710;9.590;2023-07-30T03:13:34;7.45;;;2.92;;
72949;SDS011;64868;45.710;9.590;2023-07-30T03:16:04;6.78;;;2.83;;
72949;SDS011;64868;45.710;9.590;2023-07-30T03:18:32;5.63;;;2.65;;
72949;SDS011;64868;45.710;9.590;2023-07-30T03:21:02;5.45;;;2.63;;
72949;SDS011;64868;45.710;9.590;2023-07-30T03:23:30;5.93;;;2.75;;
72949;SDS011;64868;45.710;9.590;2023-07-30T03:25:58;5.72;;;2.45;;
72949;SDS011;64868;45.710;9.590;2023-07-30T03:28:27;8.18;;;3.53;;
72949;SDS011;64868;45.710;9.590;2023-07-30T03:30:57;8.70;;;3.65;;
72949;SDS011;64868;45.710;9.590;2023-07-30T03:33:27;6.57;;;2.95;;
72949;SDS011;64868;45.710;9.590;2023-07-30T03:35:58;5.72;;;2.67;;
72949;SDS011;64868;45.710;9.590;2023-07-30T03:38:28;7.78;;;3.38;;
72949;SDS011;64868;45.710;9.590;2023-07-30T03:40:58;6.55;;;2.80;;
72949;SDS011;64868;45.710;9.590;2023-07-30T03:43:28;9.25;;;3.22;;
72949;SDS011;64868;45.710;9.590;2023-07-30T03:45:58;6.28;;;3.30;;
72949;SDS011;64868;45.710;9.590;2023-07-30T03:48:26;6.60;;;3.15;;
72949;SDS011;64868;45.710;9.590;2023-07-30T03:50:56;5.68;;;2.63;;
72949;SDS011;64868;45.710;9.590;2023-07-30T03:53:23;5.97;;;2.70;;
72949;SDS011;64868;45.710;9.590;2023-07-30T03:55:53;6.30;;;3.08;;
72949;SDS011;64868;45.710;9.590;2023-07-30T03:58:21;8.02;;;3.05;;
72949;SDS011;64868;45.710;9.590;2023-07-30T04:00:51;6.10;;;2.85;;
72949;SDS011;64868;45.710;9.590;2023-07-30T04:03:21;6.32;;;2.70;;
72949;SDS011;64868;45.710;9.590;2023-07-30T04:05:49;6.80;;;3.05;;
72949;SDS011;64868;45.710;9.590;2023-07-30T04:08:19;5.65;;;2.65;;
72949;SDS011;64868;45.710;9.590;2023-07-30T04:10:49;6.72;;;2.80;;
72949;SDS011;64868;45.710;9.590;2023-07-30T04:13:19;7.68;;;3.28;;
72949;SDS011;64868;45.710;9.590;2023-07-30T04:15:49;7.47;;;3.53;;
72949;SDS011;64868;45.710;9.590;2023-07-30T04:18:19;7.20;;;3.80;;
72949;SDS011;64868;45.710;9.590;2023-07-30T04:20:50;6.78;;;3.17;;
72949;SDS011;64868;45.710;9.590;2023-07-30T04:23:20;8.70;;;3.40;;
72949;SDS011;64868;45.710;9.590;2023-07-30T04:25:48;7.13;;;3.58;;
72949;SDS011;64868;45.710;9.590;2023-07-30T04:28:15;8.50;;;3.67;;
72949;SDS011;64868;45.710;9.590;2023-07-30T04:30:45;7.45;;;3.75;;
72949;SDS011;64868;45.710;9.590;2023-07-30T04:33:18;6.90;;;3.10;;
72949;SDS011;64868;45.710;9.590;2023-07-30T04:35:48;6.97;;;3.50;;
72949;SDS011;64868;45.710;9.590;2023-07-30T04:38:18;8.23;;;3.55;;
72949;SDS011;64868;45.710;9.590;2023-07-30T04:40:46;9.55;;;4.00;;
72949;SDS011;64868;45.710;9.590;2023-07-30T04:43:16;6.57;;;3.42;;
72949;SDS011;64868;45.710;9.590;2023-07-30T04:45:46;6.88;;;3.13;;
72949;SDS011;64868;45.710;9.590;2023-07-30T04:48:16;9.48;;;3.38;;
72949;SDS011;64868;45.710;9.590;2023-07-30T04:50:44;7.55;;;3.20;;
72949;SDS011;64868;45.710;9.590;2023-07-30T04:53:14;6.60;;;3.35;;
72949;SDS011;64868;45.710;9.590;2023-07-30T04:55:42;6.80;;;3.42;;
72949;SDS011;64868;45.710;9.590;2023-07-30T04:58:11;7.68;;;3.70;;
72949;SDS011;64868;45.710;9.590;2023-07-30T05:00:37;8.07;;;3.40;;
72949;SDS011;64868;45.710;9.590;2023-07-30T05:03:07;8.48;;;3.70;;
72949;SDS011;64868;45.710;9.590;2023-07-30T05:05:37;10.55;;;3.72;;
72949;SDS011;64868;45.710;9.590;2023-07-30T05:08:07;10.00;;;3.53;;
72949;SDS011;64868;45.710;9.590;2023-07-30T05:10:40;6.95;;;3.55;;
72949;SDS011;64868;45.710;9.590;2023-07-30T05:13:10;7.22;;;3.35;;
72949;SDS011;64868;45.710;9.590;2023-07-30T05:15:40;7.40;;;3.42;;
72949;SDS011;64868;45.710;9.590;2023-07-30T05:18:10;6.82;;;2.85;;
72949;SDS011;64868;45.710;9.590;2023-07-30T05:20:40;10.43;;;3.53;;
72949;SDS011;64868;45.710;9.590;2023-07-30T05:23:10;6.22;;;2.90;;
72949;SDS011;64868;45.710;9.590;2023-07-30T05:25:41;8.70;;;3.05;;
72949;SDS011;64868;45.710;9.590;2023-07-30T05:28:08;6.97;;;3.28;;
72949;SDS011;64868;45.710;9.590;2023-07-30T05:30:35;6.43;;;3.08;;
72949;SDS011;64868;45.710;9.590;2023-07-30T05:33:03;8.40;;;3.33;;
72949;SDS011;64868;45.710;9.590;2023-07-30T05:35:33;7.00;;;3.60;;
72949;SDS011;64868;45.710;9.590;2023-07-30T05:38:03;8.27;;;3.63;;
72949;SDS011;64868;45.710;9.590;2023-07-30T05:40:31;6.45;;;3.55;;
72949;SDS011;64868;45.710;9.590;2023-07-30T05:43:01;6.93;;;3.13;;
72949;SDS011;64868;45.710;9.590;2023-07-30T05:45:33;7.10;;;3.38;;
72949;SDS011;64868;45.710;9.590;2023-07-30T05:48:00;6.10;;;2.72;;
72949;SDS011;64868;45.710;9.590;2023-07-30T05:50:30;6.95;;;3.42;;
72949;SDS011;64868;45.710;9.590;2023-07-30T05:52:58;6.50;;;3.05;;
72949;SDS011;64868;45.710;9.590;2023-07-30T05:55:28;7.03;;;3.30;;
72949;SDS011;64868;45.710;9.590;2023-07-30T05:57:58;9.05;;;4.07;;
72949;SDS011;64868;45.710;9.590;2023-07-30T06:00:28;8.55;;;3.80;;
72949;SDS011;64868;45.710;9.590;2023-07-30T06:02:58;8.90;;;3.22;;
72949;SDS011;64868;45.710;9.590;2023-07-30T06:05:26;9.30;;;3.63;;
72949;SDS011;64868;45.710;9.590;2023-07-30T06:07:56;7.68;;;3.38;;
72949;SDS011;64868;45.710;9.590;2023-07-30T06:10:26;8.43;;;3.85;;
72949;SDS011;64868;45.710;9.590;2023-07-30T06:12:56;7.03;;;3.50;;
72949;SDS011;64868;45.710;9.590;2023-07-30T06:15:24;9.57;;;3.38;;
72949;SDS011;64868;45.710;9.590;2023-07-30T06:17:54;7.40;;;3.75;;
72949;SDS011;64868;45.710;9.590;2023-07-30T06:20:22;7.50;;;3.45;;
72949;SDS011;64868;45.710;9.590;2023-07-30T06:22:49;8.30;;;3.20;;
72949;SDS011;64868;45.710;9.590;2023-07-30T06:25:20;7.22;;;3.15;;
72949;SDS011;64868;45.710;9.590;2023-07-30T06:27:49;7.40;;;2.78;;
72949;SDS011;64868;45.710;9.590;2023-07-30T06:30:20;7.03;;;2.95;;
72949;SDS011;64868;45.710;9.590;2023-07-30T06:32:50;6.82;;;2.92;;
72949;SDS011;64868;45.710;9.590;2023-07-30T06:35:17;6.65;;;2.92;;
72949;SDS011;64868;45.710;9.590;2023-07-30T06:37:48;7.75;;;3.13;;
72949;SDS011;64868;45.710;9.590;2023-07-30T06:40:18;7.00;;;2.85;;
72949;SDS011;64868;45.710;9.590;2023-07-30T06:42:45;5.72;;;2.65;;
72949;SDS011;64868;45.710;9.590;2023-07-30T06:45:13;5.47;;;2.57;;
72949;SDS011;64868;45.710;9.590;2023-07-30T06:47:41;6.10;;;2.55;;
72949;SDS011;64868;45.710;9.590;2023-07-30T06:50:11;6.55;;;2.83;;
72949;SDS011;64868;45.710;9.590;2023-07-30T06:52:41;5.18;;;2.30;;
72949;SDS011;64868;45.710;9.590;2023-07-30T06:55:11;6.60;;;2.58;;
72949;SDS011;64868;45.710;9.590;2023-07-30T06:57:38;7.95;;;2.95;;
72949;SDS011;64868;45.710;9.590;2023-07-30T07:00:08;5.03;;;2.20;;
72949;SDS011;64868;45.710;9.590;2023-07-30T07:02:36;6.80;;;2.63;;
72949;SDS011;64868;45.710;9.590;2023-07-30T07:05:06;5.97;;;2.42;;
72949;SDS011;64868;45.710;9.590;2023-07-30T07:07:37;5.78;;;2.70;;
72949;SDS011;64868;45.710;9.590;2023-07-30T07:10:08;6.03;;;2.50;;
72949;SDS011;64868;45.710;9.590;2023-07-30T07:12:38;6.07;;;2.28;;
72949;SDS011;64868;45.710;9.590;2023-07-30T07:15:06;6.15;;;2.20;;
72949;SDS011;64868;45.710;9.590;2023-07-30T07:17:36;5.55;;;2.42;;
72949;SDS011;64868;45.710;9.590;2023-07-30T07:20:06;6.70;;;2.50;;
72949;SDS011;64868;45.710;9.590;2023-07-30T07:22:37;9.35;;;2.53;;
72949;SDS011;64868;45.710;9.590;2023-07-30T07:25:07;5.32;;;2.13;;
72949;SDS011;64868;45.710;9.590;2023-07-30T07:27:38;5.00;;;2.10;;
72949;SDS011;64868;45.710;9.590;2023-07-30T07:30:08;6.03;;;2.35;;
72949;SDS011;64868;45.710;9.590;2023-07-30T07:32:38;6.10;;;2.33;;
72949;SDS011;64868;45.710;9.590;2023-07-30T07:35:06;4.60;;;2.03;;
72949;SDS011;64868;45.710;9.590;2023-07-30T07:37:33;5.88;;;2.42;;
72949;SDS011;64868;45.710;9.590;2023-07-30T07:40:01;6.32;;;2.40;;
72949;SDS011;64868;45.710;9.590;2023-07-30T07:42:31;6.40;;;2.55;;
72949;SDS011;64868;45.710;9.590;2023-07-30T07:44:59;6.03;;;2.55;;
72949;SDS011;64868;45.710;9.590;2023-07-30T07:47:26;6.30;;;2.72;;
72949;SDS011;64868;45.710;9.590;2023-07-30T07:49:56;5.38;;;2.53;;
72949;SDS011;64868;45.710;9.590;2023-07-30T07:52:24;5.45;;;2.53;;
72949;SDS011;64868;45.710;9.590;2023-07-30T07:54:54;5.65;;;2.13;;
72949;SDS011;64868;45.710;9.590;2023-07-30T07:57:24;5.22;;;2.22;;
72949;SDS011;64868;45.710;9.590;2023-07-30T07:59:52;7.35;;;2.53;;
72949;SDS011;64868;45.710;9.590;2023-07-30T08:02:22;8.30;;;2.58;;
72949;SDS011;64868;45.710;9.590;2023-07-30T08:04:52;5.50;;;2.28;;
72949;SDS011;64868;45.710;9.590;2023-07-30T08:07:22;5.20;;;2.20;;
72949;SDS011;64868;45.710;9.590;2023-07-30T08:09:52;5.38;;;2.28;;
72949;SDS011;64868;45.710;9.590;2023-07-30T08:12:20;7.07;;;2.50;;
72949;SDS011;64868;45.710;9.590;2023-07-30T08:14:50;5.32;;;2.40;;
72949;SDS011;64868;45.710;9.590;2023-07-30T08:17:20;5.35;;;2.45;;
72949;SDS011;64868;45.710;9.590;2023-07-30T08:19:45;6.55;;;2.78;;
72949;SDS011;64868;45.710;9.590;2023-07-30T08:22:13;5.93;;;2.70;;
72949;SDS011;64868;45.710;9.590;2023-07-30T08:24:42;6.70;;;2.95;;
72949;SDS011;64868;45.710;9.590;2023-07-30T08:27:12;7.75;;;2.72;;
72949;SDS011;64868;45.710;9.590;2023-07-30T08:29:43;6.10;;;2.88;;
72949;SDS011;64868;45.710;9.590;2023-07-30T08:32:13;11.15;;;3.10;;
72949;SDS011;64868;45.710;9.590;2023-07-30T08:34:43;7.78;;;3.10;;
72949;SDS011;64868;45.710;9.590;2023-07-30T08:37:08;6.53;;;2.63;;
72949;SDS011;64868;45.710;9.590;2023-07-30T08:39:35;9.60;;;3.30;;
72949;SDS011;64868;45.710;9.590;2023-07-30T08:42:05;6.80;;;3.10;;
72949;SDS011;64868;45.710;9.590;2023-07-30T08:44:36;6.40;;;2.83;;
72949;SDS011;64868;45.710;9.590;2023-07-30T08:47:06;5.75;;;2.90;;
72949;SDS011;64868;45.710;9.590;2023-07-30T08:49:36;11.35;;;3.67;;
72949;SDS011;64868;45.710;9.590;2023-07-30T08:52:07;7.72;;;3.38;;
72949;SDS011;64868;45.710;9.590;2023-07-30T08:54:38;6.65;;;2.95;;
72949;SDS011;64868;45.710;9.590;2023-07-30T08:57:08;8.30;;;3.22;;
72949;SDS011;64868;45.710;9.590;2023-07-30T08:59:37;7.05;;;3.08;;
72949;SDS011;64868;45.710;9.590;2023-07-30T09:02:09;9.23;;;3.55;;
72949;SDS011;64868;45.710;9.590;2023-07-30T09:04:42;5.90;;;3.03;;
72949;SDS011;64868;45.710;9.590;2023-07-30T09:07:11;6.28;;;2.53;;
72949;SDS011;64868;45.710;9.590;2023-07-30T09:09:42;6.18;;;2.42;;
72949;SDS011;64868;45.710;9.590;2023-07-30T09:12:15;6.60;;;2.53;;
72949;SDS011;64868;45.710;9.590;2023-07-30T09:14:45;6.30;;;2.40;;
72949;SDS011;64868;45.710;9.590;2023-07-30T09:17:20;5.78;;;2.65;;
72949;SDS011;64868;45.710;9.590;2023-07-30T09:19:47;12.75;;;2.67;;
72949;SDS011;64868;45.710;9.590;2023-07-30T09:22:19;6.85;;;2.42;;
72949;SDS011;64868;45.710;9.590;2023-07-30T09:24:49;19.88;;;2.80;;
72949;SDS011;64868;45.710;9.590;2023-07-30T09:27:19;8.65;;;2.60;;
72949;SDS011;64868;45.710;9.590;2023-07-30T09:29:59;4.88;;;1.90;;
72949;SDS011;64868;45.710;9.590;2023-07-30T09:32:30;7.05;;;2.53;;
72949;SDS011;64868;45.710;9.590;2023-07-30T09:39:50;4.93;;;2.15;;
72949;SDS011;64868;45.710;9.590;2023-07-30T09:42:20;8.25;;;2.33;;
72949;SDS011;64868;45.710;9.590;2023-07-30T09:44:55;6.97;;;2.53;;
72949;SDS011;64868;45.710;9.590;2023-07-30T09:47:28;7.53;;;2.47;;
72949;SDS011;64868;45.710;9.590;2023-07-30T09:49:57;7.72;;;2.63;;
72949;SDS011;64868;45.710;9.590;2023-07-30T09:52:27;5.55;;;2.25;;
72949;SDS011;64868;45.710;9.590;2023-07-30T09:54:58;7.50;;;2.50;;
72949;SDS011;64868;45.710;9.590;2023-07-30T09:57:28;5.53;;;2.38;;
72949;SDS011;64868;45.710;9.590;2023-07-30T09:59:58;10.63;;;2.78;;
72949;SDS011;64868;45.710;9.590;2023-07-30T10:02:28;7.55;;;2.22;;
72949;SDS011;64868;45.710;9.590;2023-07-30T10:04:58;5.55;;;2.22;;
72949;SDS011;64868;45.710;9.590;2023-07-30T10:07:28;7.03;;;2.33;;
72949;SDS011;64868;45.710;9.590;2023-07-30T10:09:57;6.35;;;2.60;;
72949;SDS011;64868;45.710;9.590;2023-07-30T10:12:28;9.60;;;2.55;;
72949;SDS011;64868;45.710;9.590;2023-07-30T10:14:55;6.53;;;2.33;;
72949;SDS011;64868;45.710;9.590;2023-07-30T10:17:26;6.20;;;2.60;;
72949;SDS011;64868;45.710;9.590;2023-07-30T10:19:56;6.28;;;2.50;;
72949;SDS011;64868;45.710;9.590;2023-07-30T10:22:26;7.10;;;2.75;;
72949;SDS011;64868;45.710;9.590;2023-07-30T10:24:59;5.70;;;2.50;;
72949;SDS011;64868;45.710;9.590;2023-07-30T10:27:27;10.07;;;2.72;;
72949;SDS011;64868;45.710;9.590;2023-07-30T10:30:16;9.15;;;2.90;;
72949;SDS011;64868;45.710;9.590;2023-07-30T10:35:36;6.65;;;2.97;;
72949;SDS011;64868;45.710;9.590;2023-07-30T10:38:28;6.35;;;3.03;;
72949;SDS011;64868;45.710;9.590;2023-07-30T10:41:00;13.27;;;3.10;;
72949;SDS011;64868;45.710;9.590;2023-07-30T10:43:30;8.05;;;3.13;;
72949;SDS011;64868;45.710;9.590;2023-07-30T10:45:58;8.20;;;3.30;;
72949;SDS011;64868;45.710;9.590;2023-07-30T10:48:44;6.88;;;2.88;;
72949;SDS011;64868;45.710;9.590;2023-07-30T10:51:15;6.57;;;3.03;;
72949;SDS011;64868;45.710;9.590;2023-07-30T10:53:46;7.25;;;3.30;;
72949;SDS011;64868;45.710;9.590;2023-07-30T10:56:23;7.50;;;3.20;;
72949;SDS011;64868;45.710;9.590;2023-07-30T10:58:53;10.45;;;3.30;;
72949;SDS011;64868;45.710;9.590;2023-07-30T11:01:23;6.90;;;2.83;;
72949;SDS011;64868;45.710;9.590;2023-07-30T11:06:20;8.68;;;3.35;;
72949;SDS011;64868;45.710;9.590;2023-07-30T11:08:50;6.22;;;3.03;;
72949;SDS011;64868;45.710;9.590;2023-07-30T11:11:20;8.35;;;3.05;;
72949;SDS011;64868;45.710;9.590;2023-07-30T11:13:50;7.70;;;3.35;;
72949;SDS011;64868;45.710;9.590;2023-07-30T11:16:18;7.43;;;3.13;;
72949;SDS011;64868;45.710;9.590;2023-07-30T11:18:48;8.65;;;3.58;;
72949;SDS011;64868;45.710;9.590;2023-07-30T11:21:18;6.00;;;3.30;;
72949;SDS011;64868;45.710;9.590;2023-07-30T11:23:50;10.25;;;3.88;;
72949;SDS011;64868;45.710;9.590;2023-07-30T11:26:21;10.63;;;3.50;;
72949;SDS011;64868;45.710;9.590;2023-07-30T11:28:51;7.07;;;3.33;;
72949;SDS011;64868;45.710;9.590;2023-07-30T11:31:19;11.98;;;3.85;;
72949;SDS011;64868;45.710;9.590;2023-07-30T11:33:48;7.18;;;3.22;;
72949;SDS011;64868;45.710;9.590;2023-07-30T11:36:19;6.47;;;3.38;;
72949;SDS011;64868;45.710;9.590;2023-07-30T11:38:49;6.55;;;3.30;;
72949;SDS011;64868;45.710;9.590;2023-07-30T11:41:20;11.98;;;4.10;;
72949;SDS011;64868;45.710;9.590;2023-07-30T11:43:50;6.80;;;3.33;;
72949;SDS011;64868;45.710;9.590;2023-07-30T11:46:18;7.05;;;3.40;;
72949;SDS011;64868;45.710;9.590;2023-07-30T11:48:49;7.20;;;3.40;;
72949;SDS011;64868;45.710;9.590;2023-07-30T11:51:18;8.68;;;3.75;;
72949;SDS011;64868;45.710;9.590;2023-07-30T11:53:48;10.45;;;4.22;;
72949;SDS011;64868;45.710;9.590;2023-07-30T11:56:18;7.50;;;3.15;;
72949;SDS011;64868;45.710;9.590;2023-07-30T11:58:49;8.40;;;3.90;;
72949;SDS011;64868;45.710;9.590;2023-07-30T12:01:19;6.57;;;3.63;;
72949;SDS011;64868;45.710;9.590;2023-07-30T12:03:49;6.72;;;3.45;;
72949;SDS011;64868;45.710;9.590;2023-07-30T12:06:19;6.93;;;3.00;;
72949;SDS011;64868;45.710;9.590;2023-07-30T12:08:48;6.50;;;3.03;;
72949;SDS011;64868;45.710;9.590;2023-07-30T12:11:17;7.50;;;3.22;;
72949;SDS011;64868;45.710;9.590;2023-07-30T12:13:47;7.93;;;3.35;;
72949;SDS011;64868;45.710;9.590;2023-07-30T12:16:17;7.15;;;3.30;;
72949;SDS011;64868;45.710;9.590;2023-07-30T12:18:45;6.47;;;3.00;;
72949;SDS011;64868;45.710;9.590;2023-07-30T12:21:14;6.40;;;3.20;;
72949;SDS011;64868;45.710;9.590;2023-07-30T12:23:44;6.85;;;2.78;;
72949;SDS011;64868;45.710;9.590;2023-07-30T12:26:15;7.78;;;3.20;;
72949;SDS011;64868;45.710;9.590;2023-07-30T12:28:45;6.28;;;3.00;;
72949;SDS011;64868;45.710;9.590;2023-07-30T12:31:12;7.47;;;3.30;;
72949;SDS011;64868;45.710;9.590;2023-07-30T12:33:43;6.63;;;2.60;;
72949;SDS011;64868;45.710;9.590;2023-07-30T12:38:38;6.05;;;2.90;;
72949;SDS011;64868;45.710;9.590;2023-07-30T12:41:08;8.95;;;2.85;;
72949;SDS011;64868;45.710;9.590;2023-07-30T12:43:38;5.68;;;2.72;;
72949;SDS011;64868;45.710;9.590;2023-07-30T12:46:08;7.03;;;2.83;;
72949;SDS011;64868;45.710;9.590;2023-07-30T12:48:38;8.95;;;3.25;;
72949;SDS011;64868;45.710;9.590;2023-07-30T12:51:08;6.75;;;2.80;;
72949;SDS011;64868;45.710;9.590;2023-07-30T12:53:38;9.60;;;2.83;;
72949;SDS011;64868;45.710;9.590;2023-07-30T12:56:06;6.30;;;3.03;;
72949;SDS011;64868;45.710;9.590;2023-07-30T12:58:36;6.70;;;2.60;;
72949;SDS011;64868;45.710;9.590;2023-07-30T13:01:04;7.40;;;3.00;;
72949;SDS011;64868;45.710;9.590;2023-07-30T13:03:34;6.00;;;2.60;;
72949;SDS011;64868;45.710;9.590;2023-07-30T13:06:04;6.65;;;2.88;;
72949;SDS011;64868;45.710;9.590;2023-07-30T13:08:32;5.40;;;2.60;;
72949;SDS011;64868;45.710;9.590;2023-07-30T13:10:59;5.85;;;2.63;;
72949;SDS011;64868;45.710;9.590;2023-07-30T13:13:29;7.60;;;3.05;;
72949;SDS011;64868;45.710;9.590;2023-07-30T13:15:58;6.05;;;2.78;;
72949;SDS011;64868;45.710;9.590;2023-07-30T13:18:26;6.47;;;2.50;;
72949;SDS011;64868;45.710;9.590;2023-07-30T13:20:56;5.63;;;2.90;;
72949;SDS011;64868;45.710;9.590;2023-07-30T13:23:26;6.40;;;2.55;;
72949;SDS011;64868;45.710;9.590;2023-07-30T13:25:56;6.38;;;2.58;;
72949;SDS011;64868;45.710;9.590;2023-07-30T13:28:27;7.90;;;2.55;;
72949;SDS011;64868;45.710;9.590;2023-07-30T13:30:56;7.90;;;2.58;;
72949;SDS011;64868;45.710;9.590;2023-07-30T13:33:26;6.78;;;2.50;;
72949;SDS011;64868;45.710;9.590;2023-07-30T13:35:57;5.40;;;2.60;;
72949;SDS011;64868;45.710;9.590;2023-07-30T13:38:24;6.18;;;2.53;;
72949;SDS011;64868;45.710;9.590;2023-07-30T13:40:55;6.32;;;2.60;;
72949;SDS011;64868;45.710;9.590;2023-07-30T13:43:25;6.95;;;2.60;;
72949;SDS011;64868;45.710;9.590;2023-07-30T13:45:55;7.13;;;2.70;;
72949;SDS011;64868;45.710;9.590;2023-07-30T13:48:25;5.80;;;2.47;;
72949;SDS011;64868;45.710;9.590;2023-07-30T13:50:53;7.45;;;2.38;;
72949;SDS011;64868;45.710;9.590;2023-07-30T13:53:22;5.28;;;2.10;;
72949;SDS011;64868;45.710;9.590;2023-07-30T13:55:53;6.82;;;2.20;;
72949;SDS011;64868;45.710;9.590;2023-07-30T13:58:20;6.88;;;2.42;;
72949;SDS011;64868;45.710;9.590;2023-07-30T14:00:50;6.35;;;2.20;;
72949;SDS011;64868;45.710;9.590;2023-07-30T14:03:23;5.75;;;2.30;;
72949;SDS011;64868;45.710;9.590;2023-07-30T14:05:53;5.68;;;2.65;;
72949;SDS011;64868;45.710;9.590;2023-07-30T14:08:21;7.18;;;2.58;;
72949;SDS011;64868;45.710;9.590;2023-07-30T14:10:51;8.18;;;2.45;;
72949;SDS011;64868;45.710;9.590;2023-07-30T14:13:21;5.00;;;2.22;;
72949;SDS011;64868;45.710;9.590;2023-07-30T14:15:51;8.20;;;2.63;;
72949;SDS011;64868;45.710;9.590;2023-07-30T14:18:18;6.30;;;2.25;;
72949;SDS011;64868;45.710;9.590;2023-07-30T14:20:46;6.10;;;2.35;;
72949;SDS011;64868;45.710;9.590;2023-07-30T14:23:14;6.13;;;2.20;;
72949;SDS011;64868;45.710;9.590;2023-07-30T14:25:44;5.65;;;2.53;;
72949;SDS011;64868;45.710;9.590;2023-07-30T14:28:11;7.28;;;2.33;;
72949;SDS011;64868;45.710;9.590;2023-07-30T14:30:42;5.65;;;2.20;;
72949;SDS011;64868;45.710;9.590;2023-07-30T14:33:12;5.40;;;2.53;;
72949;SDS011;64868;45.710;9.590;2023-07-30T14:35:39;5.65;;;2.42;;
72949;SDS011;64868;45.710;9.590;2023-07-30T14:38:10;5.20;;;2.53;;
72949;SDS011;64868;45.710;9.590;2023-07-30T14:40:40;6.22;;;2.20;;
72949;SDS011;64868;45.710;9.590;2023-07-30T14:43:07;5.30;;;2.40;;
72949;SDS011;64868;45.710;9.590;2023-07-30T14:45:37;5.63;;;2.47;;
72949;SDS011;64868;45.710;9.590;2023-07-30T14:48:05;5.45;;;2.35;;
72949;SDS011;64868;45.710;9.590;2023-07-30T14:50:35;8.07;;;2.90;;
72949;SDS011;64868;45.710;9.590;2023-07-30T14:53:05;6.07;;;2.70;;
72949;SDS011;64868;45.710;9.590;2023-07-30T14:55:33;5.35;;;2.28;;
72949;SDS011;64868;45.710;9.590;2023-07-30T14:58:00;8.80;;;2.47;;
72949;SDS011;64868;45.710;9.590;2023-07-30T15:00:30;5.88;;;2.67;;
72949;SDS011;64868;45.710;9.590;2023-07-30T15:02:58;6.28;;;2.58;;
72949;SDS011;64868;45.710;9.590;2023-07-30T15:05:26;7.28;;;2.53;;
72949;SDS011;64868;45.710;9.590;2023-07-30T15:07:53;6.83;;;2.50;;
72949;SDS011;64868;45.710;9.590;2023-07-30T15:10:23;6.15;;;2.55;;
72949;SDS011;64868;45.710;9.590;2023-07-30T15:12:51;5.45;;;2.10;;
72949;SDS011;64868;45.710;9.590;2023-07-30T15:15:21;6.47;;;2.70;;
72949;SDS011;64868;45.710;9.590;2023-07-30T15:17:48;6.95;;;2.28;;